sensor_id;sensor_type;location;lat;lon;timestamp;temperature;humidity
13409;DHT22;6775;49.574;11.170;2022-07-29T00:01:41;21.30;75.20
13409;DHT22;6775;49.574;11.170;2022-07-29T00:04:10;21.30;75.30
13409;DHT22;6775;49.574;11.170;2022-07-29T00:06:39;21.40;75.30
13409;DHT22;6775;49.574;11.170;2022-07-29T00:09:07;21.30;75.30
13409;DHT22;6775;49.574;11.170;2022-07-29T00:11:36;21.40;75.40
13409;DHT22;6775;49.574;11.170;2022-07-29T00:14:08;21.30;75.30
13409;DHT22;6775;49.574;11.170;2022-07-29T00:16:37;21.30;75.30
13409;DHT22;6775;49.574;11.170;2022-07-29T00:19:06;21.20;75.10
13409;DHT22;6775;49.574;11.170;2022-07-29T00:21:34;21.30;75.10
13409;DHT22;6775;49.574;11.170;2022-07-29T00:24:02;21.30;75.10
13409;DHT22;6775;49.574;11.170;2022-07-29T00:26:30;21.20;75.00
13409;DHT22;6775;49.574;11.170;2022-07-29T00:28:59;21.20;75.00
13409;DHT22;6775;49.574;11.170;2022-07-29T00:31:47;21.20;75.00
13409;DHT22;6775;49.574;11.170;2022-07-29T00:34:17;21.20;75.00
13409;DHT22;6775;49.574;11.170;2022-07-29T00:36:58;21.20;75.00
13409;DHT22;6775;49.574;11.170;2022-07-29T00:39:26;21.20;74.90
13409;DHT22;6775;49.574;11.170;2022-07-29T00:41:54;21.20;75.00
13409;DHT22;6775;49.574;11.170;2022-07-29T00:44:22;21.20;75.00
13409;DHT22;6775;49.574;11.170;2022-07-29T00:46:50;21.20;74.90
13409;DHT22;6775;49.574;11.170;2022-07-29T00:49:19;21.20;75.00
13409;DHT22;6775;49.574;11.170;2022-07-29T00:51:48;21.20;75.00
13409;DHT22;6775;49.574;11.170;2022-07-29T00:54:17;21.20;74.90
13409;DHT22;6775;49.574;11.170;2022-07-29T00:56:45;21.10;74.80
13409;DHT22;6775;49.574;11.170;2022-07-29T00:59:13;21.10;74.80
13409;DHT22;6775;49.574;11.170;2022-07-29T01:01:41;21.20;74.80
13409;DHT22;6775;49.574;11.170;2022-07-29T01:04:09;21.10;74.80
13409;DHT22;6775;49.574;11.170;2022-07-29T01:06:38;21.10;74.80
13409;DHT22;6775;49.574;11.170;2022-07-29T01:09:06;21.20;74.90
13409;DHT22;6775;49.574;11.170;2022-07-29T01:11:35;21.10;74.80
13409;DHT22;6775;49.574;11.170;2022-07-29T01:14:05;21.10;74.70
13409;DHT22;6775;49.574;11.170;2022-07-29T01:16:38;21.10;74.80
13409;DHT22;6775;49.574;11.170;2022-07-29T01:19:16;21.10;74.80
13409;DHT22;6775;49.574;11.170;2022-07-29T01:21:53;21.10;74.80
13409;DHT22;6775;49.574;11.170;2022-07-29T01:24:51;21.20;74.90
13409;DHT22;6775;49.574;11.170;2022-07-29T01:27:38;21.10;75.60
13409;DHT22;6775;49.574;11.170;2022-07-29T01:30:09;21.20;74.90
13409;DHT22;6775;49.574;11.170;2022-07-29T01:32:43;21.20;74.90
13409;DHT22;6775;49.574;11.170;2022-07-29T01:35:18;21.10;74.90
13409;DHT22;6775;49.574;11.170;2022-07-29T01:37:50;21.10;75.00
13409;DHT22;6775;49.574;11.170;2022-07-29T01:40:22;21.10;75.00
13409;DHT22;6775;49.574;11.170;2022-07-29T01:42:54;21.10;75.20
13409;DHT22;6775;49.574;11.170;2022-07-29T01:45:28;21.00;75.20
13409;DHT22;6775;49.574;11.170;2022-07-29T01:48:02;21.00;75.20
13409;DHT22;6775;49.574;11.170;2022-07-29T01:50:32;21.00;75.30
13409;DHT22;6775;49.574;11.170;2022-07-29T01:53:03;21.00;75.30
13409;DHT22;6775;49.574;11.170;2022-07-29T01:55:35;20.90;75.30
13409;DHT22;6775;49.574;11.170;2022-07-29T01:58:05;20.90;75.30
13409;DHT22;6775;49.574;11.170;2022-07-29T02:00:36;20.90;75.30
13409;DHT22;6775;49.574;11.170;2022-07-29T02:03:11;20.90;75.40
13409;DHT22;6775;49.574;11.170;2022-07-29T02:05:41;20.90;75.30
13409;DHT22;6775;49.574;11.170;2022-07-29T02:08:11;20.90;75.20
13409;DHT22;6775;49.574;11.170;2022-07-29T02:10:40;20.90;75.30
13409;DHT22;6775;49.574;11.170;2022-07-29T02:13:11;20.90;75.50
13409;DHT22;6775;49.574;11.170;2022-07-29T02:15:42;20.90;75.50
13409;DHT22;6775;49.574;11.170;2022-07-29T02:18:14;20.90;75.70
13409;DHT22;6775;49.574;11.170;2022-07-29T02:20:46;20.80;75.90
13409;DHT22;6775;49.574;11.170;2022-07-29T02:23:18;20.70;76.30
13409;DHT22;6775;49.574;11.170;2022-07-29T02:25:48;20.70;76.80
13409;DHT22;6775;49.574;11.170;2022-07-29T02:28:18;20.60;77.60
13409;DHT22;6775;49.574;11.170;2022-07-29T02:30:48;20.50;77.50
13409;DHT22;6775;49.574;11.170;2022-07-29T02:33:19;20.50;77.80
13409;DHT22;6775;49.574;11.170;2022-07-29T02:39:55;20.30;79.40
13409;DHT22;6775;49.574;11.170;2022-07-29T02:42:26;20.10;80.30
13409;DHT22;6775;49.574;11.170;2022-07-29T02:44:55;20.00;80.80
13409;DHT22;6775;49.574;11.170;2022-07-29T02:47:30;19.90;81.10
13409;DHT22;6775;49.574;11.170;2022-07-29T02:50:12;19.90;81.40
13409;DHT22;6775;49.574;11.170;2022-07-29T02:52:43;19.80;82.20
13409;DHT22;6775;49.574;11.170;2022-07-29T02:55:16;19.70;83.70
13409;DHT22;6775;49.574;11.170;2022-07-29T02:57:49;19.70;83.30
13409;DHT22;6775;49.574;11.170;2022-07-29T03:00:21;19.60;83.40
13409;DHT22;6775;49.574;11.170;2022-07-29T03:02:53;19.50;83.40
13409;DHT22;6775;49.574;11.170;2022-07-29T03:05:22;19.50;83.40
13409;DHT22;6775;49.574;11.170;2022-07-29T03:07:54;19.50;83.70
13409;DHT22;6775;49.574;11.170;2022-07-29T03:10:23;19.40;84.30
13409;DHT22;6775;49.574;11.170;2022-07-29T03:12:53;19.40;85.20
13409;DHT22;6775;49.574;11.170;2022-07-29T03:15:21;19.20;85.90
13409;DHT22;6775;49.574;11.170;2022-07-29T03:17:52;19.10;85.70
13409;DHT22;6775;49.574;11.170;2022-07-29T03:20:20;19.10;85.50
13409;DHT22;6775;49.574;11.170;2022-07-29T03:22:48;19.10;84.90
13409;DHT22;6775;49.574;11.170;2022-07-29T03:25:18;19.10;84.50
13409;DHT22;6775;49.574;11.170;2022-07-29T03:27:47;19.20;84.40
13409;DHT22;6775;49.574;11.170;2022-07-29T03:30:15;19.10;85.40
13409;DHT22;6775;49.574;11.170;2022-07-29T03:32:49;19.10;85.20
13409;DHT22;6775;49.574;11.170;2022-07-29T03:35:19;19.00;85.00
13409;DHT22;6775;49.574;11.170;2022-07-29T03:37:47;19.10;85.20
13409;DHT22;6775;49.574;11.170;2022-07-29T03:40:19;19.00;85.30
13409;DHT22;6775;49.574;11.170;2022-07-29T03:42:51;19.00;85.30
13409;DHT22;6775;49.574;11.170;2022-07-29T03:45:21;19.00;85.50
13409;DHT22;6775;49.574;11.170;2022-07-29T03:47:53;19.00;86.10
13409;DHT22;6775;49.574;11.170;2022-07-29T03:50:29;18.90;86.70
13409;DHT22;6775;49.574;11.170;2022-07-29T03:52:58;18.80;87.00
13409;DHT22;6775;49.574;11.170;2022-07-29T03:55:28;18.90;87.10
13409;DHT22;6775;49.574;11.170;2022-07-29T03:57:57;18.80;86.50
13409;DHT22;6775;49.574;11.170;2022-07-29T04:00:25;18.80;86.20
13409;DHT22;6775;49.574;11.170;2022-07-29T04:02:54;18.80;86.30
13409;DHT22;6775;49.574;11.170;2022-07-29T04:05:22;18.80;86.70
13409;DHT22;6775;49.574;11.170;2022-07-29T04:07:51;18.70;87.00
13409;DHT22;6775;49.574;11.170;2022-07-29T04:10:19;18.70;87.30
13409;DHT22;6775;49.574;11.170;2022-07-29T04:12:57;18.70;87.70
13409;DHT22;6775;49.574;11.170;2022-07-29T04:15:25;18.70;87.50
13409;DHT22;6775;49.574;11.170;2022-07-29T04:17:57;18.70;87.00
13409;DHT22;6775;49.574;11.170;2022-07-29T04:20:26;18.70;86.70
13409;DHT22;6775;49.574;11.170;2022-07-29T04:22:55;18.70;86.70
13409;DHT22;6775;49.574;11.170;2022-07-29T04:25:23;18.80;87.30
13409;DHT22;6775;49.574;11.170;2022-07-29T04:27:50;18.80;86.90
13409;DHT22;6775;49.574;11.170;2022-07-29T04:30:28;18.80;86.70
13409;DHT22;6775;49.574;11.170;2022-07-29T04:32:56;18.80;86.90
13409;DHT22;6775;49.574;11.170;2022-07-29T04:35:24;18.70;86.80
13409;DHT22;6775;49.574;11.170;2022-07-29T04:37:51;18.70;86.70
13409;DHT22;6775;49.574;11.170;2022-07-29T04:40:21;18.70;86.80
13409;DHT22;6775;49.574;11.170;2022-07-29T04:42:49;18.70;86.70
13409;DHT22;6775;49.574;11.170;2022-07-29T04:45:17;18.80;86.70
13409;DHT22;6775;49.574;11.170;2022-07-29T04:47:48;18.80;86.50
13409;DHT22;6775;49.574;11.170;2022-07-29T04:50:16;18.80;86.70
13409;DHT22;6775;49.574;11.170;2022-07-29T04:52:44;18.80;86.80
13409;DHT22;6775;49.574;11.170;2022-07-29T04:55:12;18.80;87.00
13409;DHT22;6775;49.574;11.170;2022-07-29T04:57:41;18.80;87.30
13409;DHT22;6775;49.574;11.170;2022-07-29T05:00:09;18.80;87.70
13409;DHT22;6775;49.574;11.170;2022-07-29T05:02:38;18.80;87.90
13409;DHT22;6775;49.574;11.170;2022-07-29T05:05:06;18.80;88.10
13409;DHT22;6775;49.574;11.170;2022-07-29T05:07:34;18.70;88.40
13409;DHT22;6775;49.574;11.170;2022-07-29T05:10:03;18.70;88.90
13409;DHT22;6775;49.574;11.170;2022-07-29T05:12:31;18.70;89.10
13409;DHT22;6775;49.574;11.170;2022-07-29T05:15:00;18.70;89.10
13409;DHT22;6775;49.574;11.170;2022-07-29T05:17:28;18.70;89.20
13409;DHT22;6775;49.574;11.170;2022-07-29T05:19:56;18.70;89.30
13409;DHT22;6775;49.574;11.170;2022-07-29T05:22:23;18.70;89.20
13409;DHT22;6775;49.574;11.170;2022-07-29T05:24:51;18.70;89.30
13409;DHT22;6775;49.574;11.170;2022-07-29T05:27:19;18.80;89.80
13409;DHT22;6775;49.574;11.170;2022-07-29T05:29:47;18.80;90.00
13409;DHT22;6775;49.574;11.170;2022-07-29T05:32:17;18.80;90.50
13409;DHT22;6775;49.574;11.170;2022-07-29T05:34:45;18.90;90.60
13409;DHT22;6775;49.574;11.170;2022-07-29T05:37:17;18.90;90.30
13409;DHT22;6775;49.574;11.170;2022-07-29T05:39:45;19.00;90.20
13409;DHT22;6775;49.574;11.170;2022-07-29T05:42:22;19.10;90.20
13409;DHT22;6775;49.574;11.170;2022-07-29T05:44:50;19.10;90.00
13409;DHT22;6775;49.574;11.170;2022-07-29T05:47:20;19.20;90.00
13409;DHT22;6775;49.574;11.170;2022-07-29T05:49:48;19.20;90.00
13409;DHT22;6775;49.574;11.170;2022-07-29T05:52:16;19.30;89.50
13409;DHT22;6775;49.574;11.170;2022-07-29T05:54:43;19.40;89.20
13409;DHT22;6775;49.574;11.170;2022-07-29T05:57:15;19.50;89.00
13409;DHT22;6775;49.574;11.170;2022-07-29T05:59:43;19.60;88.40
13409;DHT22;6775;49.574;11.170;2022-07-29T06:02:11;19.70;88.20
13409;DHT22;6775;49.574;11.170;2022-07-29T06:04:40;19.80;87.20
13409;DHT22;6775;49.574;11.170;2022-07-29T06:07:08;19.90;86.80
13409;DHT22;6775;49.574;11.170;2022-07-29T06:09:36;20.00;86.30
13409;DHT22;6775;49.574;11.170;2022-07-29T06:12:04;20.20;86.10
13409;DHT22;6775;49.574;11.170;2022-07-29T06:14:32;20.30;85.60
13409;DHT22;6775;49.574;11.170;2022-07-29T06:17:00;20.40;85.70
13409;DHT22;6775;49.574;11.170;2022-07-29T06:19:28;20.40;85.30
13409;DHT22;6775;49.574;11.170;2022-07-29T06:21:57;20.60;85.30
13409;DHT22;6775;49.574;11.170;2022-07-29T06:24:25;20.70;82.90
13409;DHT22;6775;49.574;11.170;2022-07-29T06:26:53;20.70;82.20
13409;DHT22;6775;49.574;11.170;2022-07-29T06:29:21;20.80;82.20
13409;DHT22;6775;49.574;11.170;2022-07-29T06:31:49;20.80;82.80
13409;DHT22;6775;49.574;11.170;2022-07-29T06:34:17;20.90;83.10
13409;DHT22;6775;49.574;11.170;2022-07-29T06:36:46;21.00;83.50
13409;DHT22;6775;49.574;11.170;2022-07-29T06:39:17;21.10;83.30
13409;DHT22;6775;49.574;11.170;2022-07-29T06:41:47;21.20;83.40
13409;DHT22;6775;49.574;11.170;2022-07-29T06:44:15;21.30;83.50
13409;DHT22;6775;49.574;11.170;2022-07-29T06:46:44;21.40;83.50
13409;DHT22;6775;49.574;11.170;2022-07-29T06:49:13;21.60;83.20
13409;DHT22;6775;49.574;11.170;2022-07-29T06:51:41;21.80;83.00
13409;DHT22;6775;49.574;11.170;2022-07-29T06:54:09;21.90;82.60
13409;DHT22;6775;49.574;11.170;2022-07-29T06:56:38;22.10;82.30
13409;DHT22;6775;49.574;11.170;2022-07-29T06:59:09;22.20;82.30
13409;DHT22;6775;49.574;11.170;2022-07-29T07:01:38;22.30;81.40
13409;DHT22;6775;49.574;11.170;2022-07-29T07:04:07;22.40;81.60
13409;DHT22;6775;49.574;11.170;2022-07-29T07:06:36;22.40;81.70
13409;DHT22;6775;49.574;11.170;2022-07-29T07:09:04;22.50;81.30
13409;DHT22;6775;49.574;11.170;2022-07-29T07:11:32;22.60;81.20
13409;DHT22;6775;49.574;11.170;2022-07-29T07:14:02;22.70;81.50
13409;DHT22;6775;49.574;11.170;2022-07-29T07:16:30;22.80;81.50
13409;DHT22;6775;49.574;11.170;2022-07-29T07:18:59;22.90;81.50
13409;DHT22;6775;49.574;11.170;2022-07-29T07:21:27;23.10;81.40
13409;DHT22;6775;49.574;11.170;2022-07-29T07:23:56;23.20;81.30
13409;DHT22;6775;49.574;11.170;2022-07-29T07:26:24;23.30;81.10
13409;DHT22;6775;49.574;11.170;2022-07-29T07:28:52;23.20;80.60
13409;DHT22;6775;49.574;11.170;2022-07-29T07:31:21;23.20;80.20
13409;DHT22;6775;49.574;11.170;2022-07-29T07:33:49;23.20;80.70
13409;DHT22;6775;49.574;11.170;2022-07-29T07:36:18;23.20;81.00
13409;DHT22;6775;49.574;11.170;2022-07-29T07:38:45;23.10;81.10
13409;DHT22;6775;49.574;11.170;2022-07-29T07:41:13;23.20;80.60
13409;DHT22;6775;49.574;11.170;2022-07-29T07:43:41;23.10;80.50
13409;DHT22;6775;49.574;11.170;2022-07-29T07:46:09;23.20;80.20
13409;DHT22;6775;49.574;11.170;2022-07-29T07:48:38;23.30;80.70
13409;DHT22;6775;49.574;11.170;2022-07-29T07:51:06;23.50;81.20
13409;DHT22;6775;49.574;11.170;2022-07-29T07:53:34;23.70;81.00
13409;DHT22;6775;49.574;11.170;2022-07-29T07:56:02;23.70;80.40
13409;DHT22;6775;49.574;11.170;2022-07-29T07:58:39;23.70;80.00
13409;DHT22;6775;49.574;11.170;2022-07-29T08:01:07;23.80;80.00
13409;DHT22;6775;49.574;11.170;2022-07-29T08:03:35;23.80;80.40
13409;DHT22;6775;49.574;11.170;2022-07-29T08:06:05;23.90;80.10
13409;DHT22;6775;49.574;11.170;2022-07-29T08:08:33;24.00;79.50
13409;DHT22;6775;49.574;11.170;2022-07-29T08:11:01;24.10;79.80
13409;DHT22;6775;49.574;11.170;2022-07-29T08:13:36;24.10;79.60
13409;DHT22;6775;49.574;11.170;2022-07-29T08:16:05;24.10;79.70
13409;DHT22;6775;49.574;11.170;2022-07-29T08:18:41;24.00;80.00
13409;DHT22;6775;49.574;11.170;2022-07-29T08:21:10;24.10;80.10
13409;DHT22;6775;49.574;11.170;2022-07-29T08:23:41;24.10;80.00
13409;DHT22;6775;49.574;11.170;2022-07-29T08:26:23;24.10;79.70
13409;DHT22;6775;49.574;11.170;2022-07-29T08:28:51;24.00;80.10
13409;DHT22;6775;49.574;11.170;2022-07-29T08:31:19;24.10;80.40
13409;DHT22;6775;49.574;11.170;2022-07-29T08:33:47;24.20;80.50
13409;DHT22;6775;49.574;11.170;2022-07-29T08:36:16;24.40;80.50
13409;DHT22;6775;49.574;11.170;2022-07-29T08:38:44;24.60;79.90
13409;DHT22;6775;49.574;11.170;2022-07-29T08:41:12;24.70;79.90
13409;DHT22;6775;49.574;11.170;2022-07-29T08:43:40;24.80;79.00
13409;DHT22;6775;49.574;11.170;2022-07-29T08:46:08;24.70;79.20
13409;DHT22;6775;49.574;11.170;2022-07-29T08:48:36;24.70;79.70
13409;DHT22;6775;49.574;11.170;2022-07-29T08:51:07;24.70;80.30
13409;DHT22;6775;49.574;11.170;2022-07-29T08:53:37;24.80;80.10
13409;DHT22;6775;49.574;11.170;2022-07-29T08:56:11;25.00;80.60
13409;DHT22;6775;49.574;11.170;2022-07-29T08:58:39;25.30;80.90
13409;DHT22;6775;49.574;11.170;2022-07-29T09:01:11;25.50;80.40
13409;DHT22;6775;49.574;11.170;2022-07-29T09:03:40;25.70;79.80
13409;DHT22;6775;49.574;11.170;2022-07-29T09:06:09;26.00;79.30
13409;DHT22;6775;49.574;11.170;2022-07-29T09:08:41;26.20;79.40
13409;DHT22;6775;49.574;11.170;2022-07-29T09:11:09;26.40;79.50
13409;DHT22;6775;49.574;11.170;2022-07-29T09:13:38;26.70;79.30
13409;DHT22;6775;49.574;11.170;2022-07-29T09:16:06;26.90;78.20
13409;DHT22;6775;49.574;11.170;2022-07-29T09:18:36;27.10;77.60
13409;DHT22;6775;49.574;11.170;2022-07-29T09:21:05;27.20;77.30
13409;DHT22;6775;49.574;11.170;2022-07-29T09:24:06;27.30;77.60
13409;DHT22;6775;49.574;11.170;2022-07-29T09:26:35;27.50;76.80
13409;DHT22;6775;49.574;11.170;2022-07-29T09:29:12;27.50;76.40
13409;DHT22;6775;49.574;11.170;2022-07-29T09:31:42;27.60;76.60
13409;DHT22;6775;49.574;11.170;2022-07-29T09:34:12;27.70;76.50
13409;DHT22;6775;49.574;11.170;2022-07-29T09:36:42;27.70;76.00
13409;DHT22;6775;49.574;11.170;2022-07-29T09:39:13;27.70;76.10
13409;DHT22;6775;49.574;11.170;2022-07-29T09:41:45;27.80;76.60
13409;DHT22;6775;49.574;11.170;2022-07-29T09:44:13;27.90;76.30
13409;DHT22;6775;49.574;11.170;2022-07-29T09:46:55;28.40;75.80
13409;DHT22;6775;49.574;11.170;2022-07-29T09:49:24;27.80;75.80
13409;DHT22;6775;49.574;11.170;2022-07-29T09:52:03;27.80;76.10
13409;DHT22;6775;49.574;11.170;2022-07-29T09:54:33;27.60;76.20
13409;DHT22;6775;49.574;11.170;2022-07-29T09:57:05;27.50;76.60
13409;DHT22;6775;49.574;11.170;2022-07-29T09:59:33;27.40;77.10
13409;DHT22;6775;49.574;11.170;2022-07-29T10:02:01;27.30;77.20
13409;DHT22;6775;49.574;11.170;2022-07-29T10:04:39;27.30;78.40
13409;DHT22;6775;49.574;11.170;2022-07-29T10:07:07;27.40;78.30
13409;DHT22;6775;49.574;11.170;2022-07-29T10:09:37;27.50;78.10
13409;DHT22;6775;49.574;11.170;2022-07-29T10:12:07;27.60;77.60
13409;DHT22;6775;49.574;11.170;2022-07-29T10:14:35;27.70;78.10
13409;DHT22;6775;49.574;11.170;2022-07-29T10:17:05;27.90;78.10
13409;DHT22;6775;49.574;11.170;2022-07-29T10:19:35;28.00;77.70
13409;DHT22;6775;49.574;11.170;2022-07-29T10:22:05;27.90;77.60
13409;DHT22;6775;49.574;11.170;2022-07-29T10:24:33;27.80;77.40
13409;DHT22;6775;49.574;11.170;2022-07-29T10:27:04;27.70;78.20
13409;DHT22;6775;49.574;11.170;2022-07-29T10:29:32;27.60;78.40
13409;DHT22;6775;49.574;11.170;2022-07-29T10:32:21;27.50;79.20
13409;DHT22;6775;49.574;11.170;2022-07-29T10:35:23;27.40;79.70
13409;DHT22;6775;49.574;11.170;2022-07-29T10:38:10;27.30;80.00
13409;DHT22;6775;49.574;11.170;2022-07-29T10:40:52;27.20;80.00
13409;DHT22;6775;49.574;11.170;2022-07-29T10:43:47;27.20;80.70
13409;DHT22;6775;49.574;11.170;2022-07-29T10:46:36;27.20;79.80
13409;DHT22;6775;49.574;11.170;2022-07-29T10:49:12;27.20;80.30
13409;DHT22;6775;49.574;11.170;2022-07-29T10:52:02;27.40;80.00
13409;DHT22;6775;49.574;11.170;2022-07-29T10:54:42;27.50;79.60
13409;DHT22;6775;49.574;11.170;2022-07-29T10:57:20;27.70;79.50
13409;DHT22;6775;49.574;11.170;2022-07-29T11:00:31;27.90;79.00
13409;DHT22;6775;49.574;11.170;2022-07-29T11:02:59;28.20;78.50
13409;DHT22;6775;49.574;11.170;2022-07-29T11:05:53;28.50;77.80
13409;DHT22;6775;49.574;11.170;2022-07-29T11:08:23;28.70;78.50
13409;DHT22;6775;49.574;11.170;2022-07-29T11:14:00;29.00;76.10
13409;DHT22;6775;49.574;11.170;2022-07-29T11:16:59;29.20;76.00
13409;DHT22;6775;49.574;11.170;2022-07-29T11:19:32;29.30;75.30
13409;DHT22;6775;49.574;11.170;2022-07-29T11:22:01;29.40;74.50
13409;DHT22;6775;49.574;11.170;2022-07-29T11:24:31;29.40;74.30
13409;DHT22;6775;49.574;11.170;2022-07-29T11:27:08;29.40;74.20
13409;DHT22;6775;49.574;11.170;2022-07-29T11:29:39;29.30;73.90
13409;DHT22;6775;49.574;11.170;2022-07-29T11:32:12;29.00;74.80
13409;DHT22;6775;49.574;11.170;2022-07-29T11:34:49;28.70;75.80
13409;DHT22;6775;49.574;11.170;2022-07-29T11:37:44;28.60;76.30
13409;DHT22;6775;49.574;11.170;2022-07-29T11:40:32;28.50;76.60
13409;DHT22;6775;49.574;11.170;2022-07-29T11:43:01;28.50;76.70
13409;DHT22;6775;49.574;11.170;2022-07-29T11:45:46;28.40;76.90
13409;DHT22;6775;49.574;11.170;2022-07-29T11:48:18;28.50;77.50
13409;DHT22;6775;49.574;11.170;2022-07-29T11:50:58;28.50;77.30
13409;DHT22;6775;49.574;11.170;2022-07-29T11:53:26;28.50;76.90
13409;DHT22;6775;49.574;11.170;2022-07-29T11:55:59;28.30;76.70
13409;DHT22;6775;49.574;11.170;2022-07-29T11:58:29;28.10;77.30
13409;DHT22;6775;49.574;11.170;2022-07-29T12:00:59;28.00;77.50
13409;DHT22;6775;49.574;11.170;2022-07-29T12:03:32;27.90;77.60
13409;DHT22;6775;49.574;11.170;2022-07-29T12:06:04;27.80;78.10
13409;DHT22;6775;49.574;11.170;2022-07-29T12:08:58;27.70;78.30
13409;DHT22;6775;49.574;11.170;2022-07-29T12:11:27;27.70;78.50
13409;DHT22;6775;49.574;11.170;2022-07-29T12:13:55;27.60;78.40
13409;DHT22;6775;49.574;11.170;2022-07-29T12:16:22;27.60;78.70
13409;DHT22;6775;49.574;11.170;2022-07-29T12:19:01;27.60;78.30
13409;DHT22;6775;49.574;11.170;2022-07-29T12:21:35;27.50;78.40
13409;DHT22;6775;49.574;11.170;2022-07-29T12:24:22;27.50;78.70
13409;DHT22;6775;49.574;11.170;2022-07-29T12:26:53;27.40;78.40
13409;DHT22;6775;49.574;11.170;2022-07-29T12:29:22;27.40;78.70
13409;DHT22;6775;49.574;11.170;2022-07-29T12:32:02;27.40;78.50
13409;DHT22;6775;49.574;11.170;2022-07-29T12:34:41;27.40;79.10
13409;DHT22;6775;49.574;11.170;2022-07-29T12:37:10;27.40;78.50
13409;DHT22;6775;49.574;11.170;2022-07-29T12:39:38;27.50;78.90
13409;DHT22;6775;49.574;11.170;2022-07-29T12:42:11;27.50;79.10
13409;DHT22;6775;49.574;11.170;2022-07-29T12:44:44;27.60;79.20
13409;DHT22;6775;49.574;11.170;2022-07-29T12:47:13;27.80;80.30
13409;DHT22;6775;49.574;11.170;2022-07-29T12:49:42;28.10;80.80
13409;DHT22;6775;49.574;11.170;2022-07-29T12:52:26;28.50;80.40
13409;DHT22;6775;49.574;11.170;2022-07-29T12:54:55;28.70;78.40
13409;DHT22;6775;49.574;11.170;2022-07-29T12:57:23;28.80;78.00
13409;DHT22;6775;49.574;11.170;2022-07-29T13:00:06;29.00;76.90
13409;DHT22;6775;49.574;11.170;2022-07-29T13:02:37;29.10;76.10
13409;DHT22;6775;49.574;11.170;2022-07-29T13:05:08;29.10;76.00
13409;DHT22;6775;49.574;11.170;2022-07-29T13:07:37;29.30;75.90
13409;DHT22;6775;49.574;11.170;2022-07-29T13:10:21;29.50;75.30
13409;DHT22;6775;49.574;11.170;2022-07-29T13:13:07;29.70;74.20
13409;DHT22;6775;49.574;11.170;2022-07-29T13:15:36;29.60;73.00
13409;DHT22;6775;49.574;11.170;2022-07-29T13:18:05;29.60;73.20
13409;DHT22;6775;49.574;11.170;2022-07-29T13:20:54;29.60;73.80
13409;DHT22;6775;49.574;11.170;2022-07-29T13:23:22;29.70;73.70
13409;DHT22;6775;49.574;11.170;2022-07-29T13:25:50;29.70;73.30
13409;DHT22;6775;49.574;11.170;2022-07-29T13:28:19;29.60;74.70
13409;DHT22;6775;49.574;11.170;2022-07-29T13:30:48;29.50;74.00
13409;DHT22;6775;49.574;11.170;2022-07-29T13:33:15;29.30;73.80
13409;DHT22;6775;49.574;11.170;2022-07-29T13:35:43;29.10;74.30
13409;DHT22;6775;49.574;11.170;2022-07-29T13:38:12;29.00;74.20
13409;DHT22;6775;49.574;11.170;2022-07-29T13:40:40;28.80;74.40
13409;DHT22;6775;49.574;11.170;2022-07-29T13:43:09;28.70;74.10
13409;DHT22;6775;49.574;11.170;2022-07-29T13:45:37;28.60;74.30
13409;DHT22;6775;49.574;11.170;2022-07-29T13:48:05;28.60;72.20
13409;DHT22;6775;49.574;11.170;2022-07-29T13:50:33;28.50;71.10
13409;DHT22;6775;49.574;11.170;2022-07-29T13:53:01;28.30;71.00
13409;DHT22;6775;49.574;11.170;2022-07-29T13:55:30;28.10;70.90
13409;DHT22;6775;49.574;11.170;2022-07-29T13:57:59;27.80;70.20
13409;DHT22;6775;49.574;11.170;2022-07-29T14:00:29;27.20;71.50
13409;DHT22;6775;49.574;11.170;2022-07-29T14:02:57;26.60;73.90
13409;DHT22;6775;49.574;11.170;2022-07-29T14:05:25;26.00;76.10
13409;DHT22;6775;49.574;11.170;2022-07-29T14:07:53;25.60;78.40
13409;DHT22;6775;49.574;11.170;2022-07-29T14:10:21;25.20;80.00
13409;DHT22;6775;49.574;11.170;2022-07-29T14:12:50;25.00;81.80
13409;DHT22;6775;49.574;11.170;2022-07-29T14:15:18;24.80;83.10
13409;DHT22;6775;49.574;11.170;2022-07-29T14:17:46;24.70;85.60
13409;DHT22;6775;49.574;11.170;2022-07-29T14:20:14;24.40;89.10
13409;DHT22;6775;49.574;11.170;2022-07-29T14:22:43;24.30;92.00
13409;DHT22;6775;49.574;11.170;2022-07-29T14:25:12;24.00;93.60
13409;DHT22;6775;49.574;11.170;2022-07-29T14:27:41;23.70;94.50
13409;DHT22;6775;49.574;11.170;2022-07-29T14:30:12;23.40;95.30
13409;DHT22;6775;49.574;11.170;2022-07-29T14:32:40;23.20;96.30
13409;DHT22;6775;49.574;11.170;2022-07-29T14:35:08;23.10;97.10
13409;DHT22;6775;49.574;11.170;2022-07-29T14:37:36;22.90;97.90
13409;DHT22;6775;49.574;11.170;2022-07-29T14:40:07;22.80;98.40
13409;DHT22;6775;49.574;11.170;2022-07-29T14:42:35;22.80;99.60
13409;DHT22;6775;49.574;11.170;2022-07-29T14:45:05;22.60;99.80
13409;DHT22;6775;49.574;11.170;2022-07-29T14:47:35;22.50;99.90
13409;DHT22;6775;49.574;11.170;2022-07-29T14:50:04;22.40;99.90
13409;DHT22;6775;49.574;11.170;2022-07-29T14:52:32;22.30;99.90
13409;DHT22;6775;49.574;11.170;2022-07-29T14:55:00;22.20;99.90
13409;DHT22;6775;49.574;11.170;2022-07-29T14:57:28;22.10;99.90
13409;DHT22;6775;49.574;11.170;2022-07-29T14:59:56;22.10;99.90
13409;DHT22;6775;49.574;11.170;2022-07-29T15:02:24;22.00;99.90
13409;DHT22;6775;49.574;11.170;2022-07-29T15:05:13;22.10;99.90
13409;DHT22;6775;49.574;11.170;2022-07-29T15:07:41;22.10;99.90
13409;DHT22;6775;49.574;11.170;2022-07-29T15:10:08;22.10;99.90
13409;DHT22;6775;49.574;11.170;2022-07-29T15:12:40;22.20;99.90
13409;DHT22;6775;49.574;11.170;2022-07-29T15:15:08;22.10;99.90
13409;DHT22;6775;49.574;11.170;2022-07-29T15:17:36;22.10;99.90
13409;DHT22;6775;49.574;11.170;2022-07-29T15:20:05;22.10;99.90
13409;DHT22;6775;49.574;11.170;2022-07-29T15:22:34;22.10;99.90
13409;DHT22;6775;49.574;11.170;2022-07-29T15:25:04;22.10;99.90
13409;DHT22;6775;49.574;11.170;2022-07-29T15:27:32;22.10;99.90
13409;DHT22;6775;49.574;11.170;2022-07-29T15:30:00;22.10;99.90
13409;DHT22;6775;49.574;11.170;2022-07-29T15:32:28;22.10;99.90
13409;DHT22;6775;49.574;11.170;2022-07-29T15:34:55;22.10;99.90
13409;DHT22;6775;49.574;11.170;2022-07-29T15:37:23;22.00;99.90
13409;DHT22;6775;49.574;11.170;2022-07-29T15:39:52;22.00;99.90
13409;DHT22;6775;49.574;11.170;2022-07-29T15:42:25;21.90;99.90
13409;DHT22;6775;49.574;11.170;2022-07-29T15:44:53;21.90;99.90
13409;DHT22;6775;49.574;11.170;2022-07-29T15:47:22;21.80;99.90
13409;DHT22;6775;49.574;11.170;2022-07-29T15:49:50;21.80;99.90
13409;DHT22;6775;49.574;11.170;2022-07-29T15:52:19;21.80;99.90
13409;DHT22;6775;49.574;11.170;2022-07-29T15:54:54;21.80;99.90
13409;DHT22;6775;49.574;11.170;2022-07-29T15:57:22;21.80;99.90
13409;DHT22;6775;49.574;11.170;2022-07-29T15:59:50;21.80;99.90
13409;DHT22;6775;49.574;11.170;2022-07-29T16:02:18;21.70;99.90